Time;durP1;ratioP1;P1;durP2;ratioP2;P2;SDS_P1;SDS_P2;PMS_P1;PMS_P2;Temp;Humidity;BMP_temperature;BMP_pressure;BME280_temperature;BME280_humidity;BME280_pressure;Samples;Min_cycle;Max_cycle;Signal;HPM_P1;HPM_P2
2021/08/04 00:01:51;;;;;;;14.23;12.90;;;14.70;99.90;;;;;;4978554;28;20469;-66
2021/08/04 00:04:21;;;;;;;14.33;13.03;;;14.70;99.90;;;;;;4979384;28;20485;-66
2021/08/04 00:06:50;;;;;;;13.63;12.50;;;14.70;99.90;;;;;;4997307;28;20830;-66
2021/08/04 00:09:25;;;;;;;15.80;14.30;;;14.80;99.90;;;;;;4987662;28;20466;-66
2021/08/04 00:11:52;;;;;;;14.10;12.90;;;14.80;99.90;;;;;;4978787;28;20813;-66
2021/08/04 00:14:19;;;;;;;14.73;13.43;;;14.90;99.90;;;;;;4978686;28;20461;-66
2021/08/04 00:16:51;;;;;;;15.47;13.57;;;14.90;99.90;;;;;;4978178;28;20520;-66
2021/08/04 00:19:19;;;;;;;14.50;13.10;;;14.80;99.90;;;;;;4978105;28;20813;-66
2021/08/04 00:21:46;;;;;;;14.60;13.40;;;14.80;99.90;;;;;;4985176;28;20440;-66
2021/08/04 00:24:15;;;;;;;15.57;14.17;;;14.80;99.90;;;;;;4998275;28;20882;-66
2021/08/04 00:26:44;;;;;;;15.80;14.20;;;14.80;99.90;;;;;;4997630;28;20882;-66
2021/08/04 00:29:19;;;;;;;15.17;13.63;;;14.80;99.90;;;;;;4997742;28;20797;-66
2021/08/04 00:31:46;;;;;;;15.47;13.90;;;14.90;99.90;;;;;;4997935;28;20464;-66
2021/08/04 00:34:22;;;;;;;15.37;13.77;;;14.80;99.90;;;;;;4997564;28;20464;-66
2021/08/04 00:36:53;;;;;;;15.67;14.13;;;14.80;99.90;;;;;;4997566;28;20464;-66
2021/08/04 00:39:21;;;;;;;15.07;13.60;;;14.80;99.90;;;;;;4997651;28;20456;-66
2021/08/04 00:41:54;;;;;;;15.37;13.97;;;14.80;99.90;;;;;;4998250;28;20801;-66
2021/08/04 00:44:20;;;;;;;15.93;13.50;;;14.80;99.90;;;;;;4997688;28;20740;-67
2021/08/04 00:46:47;;;;;;;15.17;13.70;;;14.80;99.90;;;;;;4997940;28;20469;-67
2021/08/04 00:49:15;;;;;;;15.30;13.90;;;14.80;99.90;;;;;;4997657;28;20578;-67
2021/08/04 00:51:43;;;;;;;15.87;14.10;;;14.80;99.90;;;;;;4998032;28;20465;-67
2021/08/04 00:54:10;;;;;;;20.60;14.77;;;14.90;99.90;;;;;;4997680;28;20527;-67
2021/08/04 00:56:39;;;;;;;17.27;14.13;;;14.90;99.90;;;;;;4997975;28;20706;-67
2021/08/04 00:59:07;;;;;;;16.70;15.10;;;14.80;99.90;;;;;;4997466;28;20779;-67
2021/08/04 01:01:41;;;;;;;17.83;15.90;;;14.90;99.90;;;;;;4997919;28;20494;-67
2021/08/04 01:04:13;;;;;;;16.27;14.70;;;14.90;99.90;;;;;;4997734;28;20472;-67
2021/08/04 01:06:47;;;;;;;16.93;15.33;;;14.90;99.90;;;;;;4989293;28;20920;-67
2021/08/04 01:09:18;;;;;;;15.63;14.23;;;14.90;99.90;;;;;;4997112;28;20485;-67
2021/08/04 01:11:55;;;;;;;15.87;14.47;;;14.90;99.90;;;;;;4997275;28;20464;-67
2021/08/04 01:14:24;;;;;;;16.33;14.90;;;14.90;99.90;;;;;;4997138;28;20465;-67
2021/08/04 01:16:53;;;;;;;17.30;15.63;;;15.00;99.90;;;;;;4997496;28;20468;-67
2021/08/04 01:19:28;;;;;;;17.73;16.13;;;15.00;99.90;;;;;;4997115;28;20461;-67
2021/08/04 01:22:03;;;;;;;18.33;16.80;;;15.00;99.90;;;;;;5001153;28;20460;-67
2021/08/04 01:24:36;;;;;;;17.40;15.90;;;15.00;99.90;;;;;;5000478;28;20480;-67
2021/08/04 01:27:06;;;;;;;18.57;16.77;;;15.00;99.90;;;;;;5000991;28;20439;-67
2021/08/04 01:29:34;;;;;;;17.97;16.30;;;14.90;99.90;;;;;;5001051;28;20500;-67
2021/08/04 01:32:04;;;;;;;18.70;17.07;;;14.90;99.90;;;;;;5001114;28;20956;-67
2021/08/04 01:34:35;;;;;;;19.17;17.37;;;14.90;99.90;;;;;;5000845;28;20476;-67
2021/08/04 01:37:04;;;;;;;18.70;16.80;;;14.90;99.90;;;;;;5001080;28;20464;-67
2021/08/04 01:39:34;;;;;;;18.57;16.87;;;14.90;99.90;;;;;;5000551;28;20483;-67
2021/08/04 01:42:05;;;;;;;18.07;16.40;;;14.90;99.90;;;;;;4986837;28;20466;-67
2021/08/04 01:44:35;;;;;;;18.50;16.80;;;14.90;99.90;;;;;;4980715;28;20544;-67
2021/08/04 01:47:02;;;;;;;20.17;18.07;;;14.90;99.90;;;;;;4981145;28;20966;-67
2021/08/04 01:49:32;;;;;;;17.80;16.30;;;15.00;99.90;;;;;;4980679;28;20848;-67
2021/08/04 01:52:00;;;;;;;18.53;16.73;;;15.00;99.90;;;;;;4981183;28;20466;-67
2021/08/04 01:54:28;;;;;;;17.10;15.27;;;14.90;99.90;;;;;;4980846;28;20472;-67
2021/08/04 01:56:55;;;;;;;18.23;15.40;;;14.90;99.90;;;;;;4980814;28;20497;-67
2021/08/04 01:59:25;;;;;;;16.90;15.30;;;14.90;99.90;;;;;;4981309;28;20461;-67
2021/08/04 02:01:52;;;;;;;18.10;15.73;;;15.00;99.90;;;;;;4981308;28;20469;-67
2021/08/04 02:04:19;;;;;;;17.13;15.47;;;14.90;99.90;;;;;;4973073;28;20485;-67
2021/08/04 02:06:54;;;;;;;16.60;15.00;;;14.90;99.90;;;;;;4979649;28;20462;-67
2021/08/04 02:09:27;;;;;;;18.20;16.50;;;14.90;99.90;;;;;;4980052;28;20493;-67
2021/08/04 02:12:00;;;;;;;17.27;15.67;;;14.80;99.90;;;;;;4980893;28;20473;-67
2021/08/04 02:14:34;;;;;;;18.43;16.53;;;14.90;99.90;;;;;;4980505;28;20531;-67
2021/08/04 02:17:07;;;;;;;17.77;16.17;;;14.90;99.90;;;;;;4980763;28;20537;-67
2021/08/04 02:19:43;;;;;;;17.77;16.07;;;14.90;99.90;;;;;;4981017;28;20803;-67
2021/08/04 02:22:16;;;;;;;17.80;16.20;;;14.90;99.90;;;;;;4980421;28;20461;-67
2021/08/04 02:24:49;;;;;;;16.77;15.20;;;14.90;99.90;;;;;;4979931;28;20564;-67
2021/08/04 02:27:16;;;;;;;17.00;15.47;;;14.90;99.90;;;;;;4980478;28;20564;-67
2021/08/04 02:29:48;;;;;;;17.97;16.23;;;14.90;99.90;;;;;;4980893;28;20464;-67
2021/08/04 02:32:15;;;;;;;19.13;16.57;;;14.90;99.90;;;;;;4979496;28;20887;-67
2021/08/04 02:34:42;;;;;;;18.90;16.20;;;14.80;99.90;;;;;;4980051;28;20496;-67
2021/08/04 02:37:09;;;;;;;19.57;17.77;;;14.90;99.90;;;;;;4980065;28;20477;-67
2021/08/04 02:39:37;;;;;;;18.50;16.80;;;14.80;99.90;;;;;;4979857;28;20955;-67
2021/08/04 02:42:07;;;;;;;18.07;16.40;;;14.90;99.90;;;;;;4980223;28;20706;-67
2021/08/04 02:44:34;;;;;;;14.90;13.67;;;14.80;99.90;;;;;;4980426;28;20472;-67
2021/08/04 02:47:03;;;;;;;20.53;15.33;;;14.80;99.90;;;;;;4972353;28;20466;-67
2021/08/04 02:49:30;;;;;;;18.10;16.50;;;14.80;99.90;;;;;;4961282;29;20546;-67
2021/08/04 02:51:58;;;;;;;21.00;17.73;;;14.80;99.90;;;;;;4960860;29;20762;-67
2021/08/04 02:54:25;;;;;;;18.10;15.77;;;14.80;99.90;;;;;;4960533;29;20471;-67
2021/08/04 02:56:52;;;;;;;18.87;17.17;;;14.80;99.90;;;;;;4960653;29;20955;-67
2021/08/04 02:59:19;;;;;;;16.93;15.23;;;14.80;99.90;;;;;;4960657;29;20817;-67
2021/08/04 03:01:46;;;;;;;18.63;16.80;;;14.80;99.90;;;;;;4960473;29;20470;-67
2021/08/04 03:04:14;;;;;;;16.50;14.93;;;14.70;99.90;;;;;;4964747;28;20568;-67
2021/08/04 03:06:41;;;;;;;16.37;14.87;;;14.70;99.90;;;;;;4978779;28;20465;-67
2021/08/04 03:09:08;;;;;;;18.67;16.03;;;14.70;99.90;;;;;;4979122;28;20486;-67
2021/08/04 03:11:35;;;;;;;18.00;16.27;;;14.70;99.90;;;;;;4979709;28;20527;-67
2021/08/04 03:14:03;;;;;;;18.30;16.40;;;14.70;99.90;;;;;;4979152;28;20465;-67
2021/08/04 03:16:30;;;;;;;19.70;17.90;;;14.70;99.90;;;;;;4979615;28;20972;-67
2021/08/04 03:18:57;;;;;;;17.93;16.27;;;14.70;99.90;;;;;;4979608;28;20736;-67
2021/08/04 03:21:25;;;;;;;17.97;16.30;;;14.60;99.90;;;;;;4978832;28;20950;-67
2021/08/04 03:23:52;;;;;;;19.70;18.00;;;14.60;99.90;;;;;;4979869;28;20941;-67
2021/08/04 03:26:19;;;;;;;17.70;15.77;;;14.60;99.90;;;;;;4979414;28;20540;-67
2021/08/04 03:28:46;;;;;;;18.70;17.00;;;14.50;99.90;;;;;;4979363;28;20958;-67
2021/08/04 03:31:13;;;;;;;20.30;18.30;;;14.50;99.90;;;;;;4979203;28;20461;-67
2021/08/04 03:33:41;;;;;;;20.67;18.87;;;14.40;99.90;;;;;;4979244;28;20466;-67
2021/08/04 03:36:08;;;;;;;18.63;16.83;;;14.40;99.90;;;;;;4979003;28;20477;-67
2021/08/04 03:38:36;;;;;;;21.03;18.80;;;14.30;99.90;;;;;;4978705;28;20458;-67
2021/08/04 03:41:03;;;;;;;20.03;18.00;;;14.30;99.90;;;;;;4978908;28;20549;-67
2021/08/04 03:43:30;;;;;;;18.17;16.30;;;14.30;99.90;;;;;;4979282;28;20517;-67
2021/08/04 03:45:57;;;;;;;20.07;17.97;;;14.30;99.90;;;;;;4979120;28;20524;-67
2021/08/04 03:48:24;;;;;;;20.37;18.37;;;14.30;99.90;;;;;;4989599;28;20496;-67
2021/08/04 03:50:51;;;;;;;20.90;18.83;;;14.20;99.90;;;;;;4998042;28;20493;-67
2021/08/04 03:53:18;;;;;;;18.63;16.73;;;14.10;99.90;;;;;;4998325;28;20465;-67
2021/08/04 03:55:46;;;;;;;20.87;18.83;;;14.00;99.90;;;;;;4998320;28;20804;-67
2021/08/04 03:58:14;;;;;;;23.00;20.53;;;14.00;99.90;;;;;;4998021;28;20465;-67
2021/08/04 04:00:42;;;;;;;22.27;19.93;;;14.00;99.90;;;;;;4998210;28;20497;-67
2021/08/04 04:03:09;;;;;;;22.17;20.00;;;14.00;99.90;;;;;;4993527;28;21146;-67
2021/08/04 04:05:37;;;;;;;20.87;18.87;;;13.90;99.90;;;;;;4981769;28;20480;-67
2021/08/04 04:08:05;;;;;;;23.17;19.00;;;13.80;99.90;;;;;;4978215;28;20462;-67
2021/08/04 04:10:32;;;;;;;20.77;18.90;;;13.80;99.90;;;;;;4978875;28;20939;-67
2021/08/04 04:13:01;;;;;;;24.40;21.33;;;13.80;99.90;;;;;;4983817;28;20508;-67
2021/08/04 04:15:33;;;;;;;22.83;20.50;;;13.80;99.90;;;;;;4997972;28;20468;-67
2021/08/04 04:18:00;;;;;;;22.10;19.70;;;13.80;99.90;;;;;;4997714;28;20862;-67
2021/08/04 04:20:27;;;;;;;21.40;19.20;;;13.70;99.90;;;;;;4997847;28;20465;-67
2021/08/04 04:22:56;;;;;;;20.33;17.97;;;13.70;99.90;;;;;;4997589;28;20437;-67
2021/08/04 04:25:23;;;;;;;22.53;20.37;;;13.70;99.90;;;;;;4998009;28;20806;-67
2021/08/04 04:27:50;;;;;;;22.43;20.20;;;13.70;99.90;;;;;;4997216;28;20531;-67
2021/08/04 04:30:18;;;;;;;21.00;18.90;;;13.70;99.90;;;;;;4997325;28;20500;-68
2021/08/04 04:32:45;;;;;;;21.40;19.30;;;13.70;99.90;;;;;;4997515;28;20471;-67
2021/08/04 04:35:13;;;;;;;21.70;19.60;;;13.60;99.90;;;;;;4997914;28;20471;-68
2021/08/04 04:37:40;;;;;;;21.30;19.27;;;13.70;99.90;;;;;;4997370;28;20560;-67
2021/08/04 04:40:08;;;;;;;20.30;17.43;;;13.70;99.90;;;;;;4997011;28;20464;-68
2021/08/04 04:42:35;;;;;;;20.60;18.53;;;13.70;99.90;;;;;;4997337;28;20830;-68
2021/08/04 04:45:02;;;;;;;22.20;20.00;;;13.70;99.90;;;;;;4989688;28;20782;-67
2021/08/04 04:47:30;;;;;;;22.90;20.60;;;13.80;99.90;;;;;;4997496;28;20566;-68
2021/08/04 04:49:57;;;;;;;24.23;21.90;;;13.80;99.90;;;;;;4997255;28;20496;-67
2021/08/04 04:52:24;;;;;;;24.73;22.33;;;13.90;99.90;;;;;;4997372;28;20519;-67
2021/08/04 04:54:51;;;;;;;27.80;23.07;;;13.90;99.90;;;;;;4997950;28;20464;-68
2021/08/04 04:57:18;;;;;;;25.13;22.57;;;13.90;99.90;;;;;;5001224;28;20464;-67
2021/08/04 04:59:45;;;;;;;27.10;24.20;;;14.00;99.90;;;;;;5001155;28;20464;-67
2021/08/04 05:02:13;;;;;;;25.27;22.80;;;14.10;99.90;;;;;;5001339;28;20933;-68
2021/08/04 05:04:41;;;;;;;27.90;25.00;;;14.10;99.90;;;;;;4993755;28;20469;-67
2021/08/04 05:07:08;;;;;;;28.50;25.70;;;14.30;99.90;;;;;;5000688;28;20457;-67
2021/08/04 05:09:35;;;;;;;26.10;23.40;;;14.30;99.90;;;;;;5000760;28;20762;-67
2021/08/04 05:12:02;;;;;;;25.33;22.90;;;14.40;99.90;;;;;;5001169;28;20464;-68
2021/08/04 05:14:29;;;;;;;24.80;22.40;;;14.50;99.90;;;;;;5000542;28;20523;-68
2021/08/04 05:16:56;;;;;;;23.40;21.07;;;14.60;99.90;;;;;;5001196;28;20472;-68
2021/08/04 05:19:23;;;;;;;25.13;22.70;;;14.70;99.90;;;;;;5000769;28;20821;-68
2021/08/04 05:21:52;;;;;;;24.70;22.30;;;14.70;99.90;;;;;;5001224;28;20431;-68
2021/08/04 05:24:19;;;;;;;24.23;21.90;;;14.70;99.90;;;;;;5000776;28;20480;-68
2021/08/04 05:26:46;;;;;;;24.00;21.60;;;14.80;99.90;;;;;;5000827;28;20469;-68
2021/08/04 05:29:13;;;;;;;23.30;21.20;;;14.80;99.90;;;;;;5000507;28;20527;-68
2021/08/04 05:31:40;;;;;;;23.60;21.40;;;14.80;99.90;;;;;;5000896;28;20551;-69
2021/08/04 05:34:07;;;;;;;23.63;21.43;;;14.90;99.90;;;;;;5000660;28;20828;-68
2021/08/04 05:36:34;;;;;;;24.47;22.30;;;14.90;99.90;;;;;;5000728;28;20464;-69
2021/08/04 05:39:03;;;;;;;23.37;21.07;;;15.00;99.90;;;;;;4992175;28;20950;-69
2021/08/04 05:41:30;;;;;;;24.43;22.20;;;15.20;99.90;;;;;;5000882;28;20820;-68
2021/08/04 05:43:57;;;;;;;28.10;25.37;;;15.30;99.90;;;;;;5000028;28;20532;-68
2021/08/04 05:46:26;;;;;;;26.00;23.50;;;15.50;99.90;;;;;;5000550;28;20527;-68
2021/08/04 05:48:53;;;;;;;29.13;26.33;;;15.70;99.90;;;;;;5000145;28;20862;-68
2021/08/04 05:51:20;;;;;;;28.77;25.83;;;15.90;99.90;;;;;;5000118;28;20558;-68
2021/08/04 05:53:53;;;;;;;28.23;25.43;;;16.00;99.90;;;;;;5000603;28;20954;-68
2021/08/04 05:56:21;;;;;;;28.87;26.13;;;16.10;99.90;;;;;;5000394;28;20740;-68
2021/08/04 05:58:48;;;;;;;27.40;24.83;;;16.30;99.90;;;;;;5000296;28;20469;-67
2021/08/04 06:01:15;;;;;;;27.07;24.37;;;16.50;99.90;;;;;;5000526;28;20520;-67
2021/08/04 06:03:42;;;;;;;28.87;25.60;;;16.70;99.90;;;;;;4994607;28;20473;-68
2021/08/04 06:06:10;;;;;;;26.90;24.17;;;16.90;99.90;;;;;;4996920;28;20480;-68
2021/08/04 06:08:40;;;;;;;25.93;23.53;;;16.90;99.90;;;;;;4999501;28;20780;-68
2021/08/04 06:11:07;;;;;;;26.57;24.03;;;16.70;99.90;;;;;;5000043;28;20559;-68
2021/08/04 06:13:36;;;;;;;26.63;24.10;;;16.80;99.90;;;;;;5000160;28;20511;-68
2021/08/04 06:16:03;;;;;;;27.33;24.63;;;16.90;99.90;;;;;;4999669;28;20469;-68
2021/08/04 06:18:30;;;;;;;26.40;24.00;;;16.80;99.90;;;;;;4999716;28;20465;-68
2021/08/04 06:20:57;;;;;;;27.77;25.00;;;16.80;99.90;;;;;;4999788;28;20465;-68
2021/08/04 06:23:24;;;;;;;25.60;23.20;;;16.80;99.90;;;;;;4999801;28;20465;-68
2021/08/04 06:25:51;;;;;;;25.40;22.70;;;16.90;99.90;;;;;;4998297;28;20475;-68
2021/08/04 06:28:18;;;;;;;26.70;24.27;;;17.00;99.90;;;;;;4999117;28;20535;-68
2021/08/04 06:30:47;;;;;;;26.40;24.00;;;17.00;99.90;;;;;;4998858;28;20489;-68
2021/08/04 06:33:16;;;;;;;26.47;24.13;;;17.10;99.90;;;;;;4999578;28;20531;-68
2021/08/04 06:35:45;;;;;;;26.87;24.37;;;17.30;99.90;;;;;;4999095;28;20913;-67
2021/08/04 06:38:14;;;;;;;27.03;24.30;;;17.10;99.90;;;;;;4998980;28;20570;-67
2021/08/04 06:40:41;;;;;;;28.80;26.00;;;17.10;99.90;;;;;;4999397;28;20460;-67
2021/08/04 06:43:10;;;;;;;27.97;25.47;;;16.90;99.90;;;;;;4999959;28;20460;-67
2021/08/04 06:45:37;;;;;;;28.30;25.80;;;17.10;99.90;;;;;;4999731;28;20518;-67
2021/08/04 06:48:10;;;;;;;29.73;26.80;;;17.30;99.90;;;;;;4999207;28;20489;-67
2021/08/04 06:50:37;;;;;;;28.57;25.90;;;17.70;99.90;;;;;;4999066;28;20496;-67
2021/08/04 06:53:04;;;;;;;26.67;24.30;;;18.00;99.90;;;;;;4999479;28;20475;-67
2021/08/04 06:55:31;;;;;;;26.67;24.20;;;18.10;99.90;;;;;;4998436;28;20527;-67
2021/08/04 06:57:58;;;;;;;27.87;25.47;;;18.00;99.90;;;;;;4999141;28;20732;-67
2021/08/04 07:00:25;;;;;;;27.00;24.50;;;18.00;99.90;;;;;;4998948;28;20808;-67
2021/08/04 07:02:54;;;;;;;27.73;25.00;;;18.30;99.90;;;;;;4996434;28;20540;-67
2021/08/04 07:05:22;;;;;;;26.37;24.10;;;18.60;99.90;;;;;;4994223;28;20984;-67
2021/08/04 07:07:52;;;;;;;25.23;22.87;;;18.60;99.90;;;;;;4998997;28;20472;-67
2021/08/04 07:10:19;;;;;;;25.03;22.83;;;18.70;99.90;;;;;;4998027;28;20515;-67
2021/08/04 07:12:47;;;;;;;26.73;24.30;;;18.90;99.90;;;;;;4998919;28;20544;-66
2021/08/04 07:15:14;;;;;;;26.10;23.70;;;18.90;99.90;;;;;;4999058;28;20806;-66
2021/08/04 07:17:45;;;;;;;27.67;25.07;;;18.80;99.90;;;;;;4998297;28;20890;-66
2021/08/04 07:20:16;;;;;;;26.23;23.53;;;18.40;99.90;;;;;;4998350;28;20465;-66
2021/08/04 07:22:45;;;;;;;23.80;21.70;;;18.00;99.90;;;;;;4998488;28;20905;-66
2021/08/04 07:25:12;;;;;;;24.77;22.37;;;17.90;99.90;;;;;;4998769;28;20551;-66
2021/08/04 07:27:40;;;;;;;25.40;22.97;;;18.10;99.90;;;;;;4998463;28;20519;-66
2021/08/04 07:30:12;;;;;;;25.17;22.97;;;18.30;99.90;;;;;;4998155;28;20469;-66
2021/08/04 07:35:20;;;;;;;25.20;22.93;;;18.40;99.90;;;;;;4996613;28;20461;-66
2021/08/04 07:37:48;;;;;;;26.83;24.30;;;18.60;99.90;;;;;;4998302;28;20863;-66
2021/08/04 07:40:17;;;;;;;25.27;22.77;;;18.80;99.90;;;;;;4997715;28;20895;-66
2021/08/04 07:42:44;;;;;;;27.10;24.53;;;18.80;99.90;;;;;;4998187;28;20872;-66
2021/08/04 07:45:12;;;;;;;27.90;25.30;;;19.00;99.90;;;;;;4998518;28;20465;-66
2021/08/04 07:47:42;;;;;;;26.00;23.50;;;19.20;99.90;;;;;;4997880;28;21008;-66
2021/08/04 07:50:10;;;;;;;25.23;22.93;;;19.10;99.90;;;;;;4997293;28;20460;-65
2021/08/04 07:52:37;;;;;;;23.37;21.03;;;19.30;99.90;;;;;;4998350;28;20539;-65
2021/08/04 07:55:06;;;;;;;24.67;22.40;;;19.60;99.90;;;;;;4997738;28;20439;-65
2021/08/04 07:57:33;;;;;;;27.87;24.97;;;19.90;99.90;;;;;;4998132;28;20496;-65
2021/08/04 08:00:00;;;;;;;24.80;22.50;;;19.70;99.90;;;;;;4997589;28;20465;-65
2021/08/04 08:02:27;;;;;;;25.20;22.80;;;19.40;99.90;;;;;;4997862;28;20481;-65
2021/08/04 08:04:58;;;;;;;23.73;21.60;;;19.60;99.90;;;;;;4990002;28;20473;-65
2021/08/04 08:07:25;;;;;;;24.70;22.60;;;19.80;99.90;;;;;;4990020;28;20467;-65
2021/08/04 08:09:52;;;;;;;21.93;19.87;;;19.90;99.90;;;;;;4997971;28;20889;-65
2021/08/04 08:12:21;;;;;;;23.40;21.40;;;20.30;99.90;;;;;;4998233;28;20500;-65
2021/08/04 08:14:48;;;;;;;24.07;21.83;;;20.30;99.90;;;;;;4997475;28;20826;-65
2021/08/04 08:17:15;;;;;;;21.13;19.33;;;20.50;99.90;;;;;;4998232;28;20465;-65
2021/08/04 08:19:42;;;;;;;21.57;19.57;;;20.10;99.90;;;;;;4997954;28;20468;-65
2021/08/04 08:22:14;;;;;;;20.93;19.07;;;19.60;99.90;;;;;;4997500;28;20456;-65
2021/08/04 08:24:45;;;;;;;19.90;17.87;;;19.60;99.90;;;;;;4997911;28;20743;-65
2021/08/04 08:27:12;;;;;;;19.13;17.63;;;19.70;99.90;;;;;;4998104;28;20527;-65
2021/08/04 08:29:42;;;;;;;18.93;17.43;;;19.70;99.90;;;;;;4997109;28;20894;-65
2021/08/04 08:32:11;;;;;;;18.80;17.10;;;19.70;99.90;;;;;;4996709;28;20556;-65
2021/08/04 08:34:38;;;;;;;18.03;16.47;;;20.20;99.90;;;;;;4997909;28;20469;-65
2021/08/04 08:37:05;;;;;;;18.67;16.97;;;20.00;99.90;;;;;;4998138;28;20519;-65
2021/08/04 08:39:32;;;;;;;18.27;16.67;;;20.10;99.90;;;;;;4997842;28;20968;-64
2021/08/04 08:42:03;;;;;;;18.60;17.00;;;19.80;99.90;;;;;;4997638;28;20463;-64
2021/08/04 08:44:30;;;;;;;18.53;16.93;;;19.60;99.90;;;;;;4997376;28;20532;-64
2021/08/04 08:47:01;;;;;;;18.70;17.20;;;20.10;99.90;;;;;;4997583;28;20898;-64
2021/08/04 08:49:36;;;;;;;16.53;15.03;;;20.70;99.90;;;;;;4997258;28;20527;-63
2021/08/04 08:52:04;;;;;;;15.20;14.00;;;20.20;99.90;;;;;;4997034;28;20492;-63
2021/08/04 08:54:31;;;;;;;15.83;14.47;;;20.60;99.90;;;;;;4997644;28;20469;-63
2021/08/04 08:56:58;;;;;;;16.80;15.20;;;21.00;99.90;;;;;;5016719;28;20460;-63
2021/08/04 08:59:25;;;;;;;15.33;14.10;;;21.90;99.90;;;;;;5017123;28;20531;-63
2021/08/04 09:01:52;;;;;;;15.90;14.60;;;22.10;99.90;;;;;;5017304;28;20519;-63
2021/08/04 09:04:21;;;;;;;16.07;14.57;;;22.40;99.90;;;;;;4996763;28;20473;-63
2021/08/04 09:06:52;;;;;;;14.57;13.27;;;22.90;99.90;;;;;;4996877;28;20457;-63
2021/08/04 09:09:25;;;;;;;17.63;13.50;;;22.10;99.30;;;;;;4997049;28;20464;-63
2021/08/04 09:11:54;;;;;;;14.43;13.20;;;21.70;99.90;;;;;;4996922;28;20500;-63
2021/08/04 09:14:31;;;;;;;14.50;13.20;;;22.40;99.90;;;;;;4997122;28;20523;-63
2021/08/04 09:17:01;;;;;;;13.60;12.40;;;22.90;99.90;;;;;;4997343;28;20527;-63
2021/08/04 09:19:32;;;;;;;14.97;13.73;;;23.40;99.90;;;;;;4997639;28;20465;-63
2021/08/04 09:22:29;;;;;;;13.97;12.77;;;23.90;99.90;;;;;;4997120;28;20937;-63
2021/08/04 09:25:08;;;;;;;13.60;12.37;;;24.30;98.40;;;;;;4935989;29;20542;-63
2021/08/04 09:27:46;;;;;;;14.13;12.93;;;24.10;96.30;;;;;;4977304;28;20467;-64
2021/08/04 09:30:25;;;;;;;15.90;14.43;;;23.90;95.00;;;;;;4997102;28;20770;-63
2021/08/04 10:09:47;;;;;;;7.67;7.07;;;26.40;83.90;;;;;;5505725;23;20473;-61
2021/08/04 10:12:18;;;;;;;8.20;7.50;;;27.10;79.60;;;;;;4959015;29;20755;-58
2021/08/04 10:14:45;;;;;;;7.40;6.77;;;26.50;73.90;;;;;;4961518;29;20518;-61
2021/08/04 10:17:14;;;;;;;9.00;8.20;;;26.70;75.20;;;;;;4961213;29;20884;-61
2021/08/04 10:19:43;;;;;;;8.60;7.50;;;26.20;75.30;;;;;;4960834;29;20470;-62
2021/08/04 10:22:14;;;;;;;8.90;8.20;;;26.80;76.30;;;;;;4961291;29;20458;-61
2021/08/04 10:24:48;;;;;;;8.30;6.57;;;27.00;73.10;;;;;;4961317;29;20463;-61
2021/08/04 10:27:18;;;;;;;8.53;7.93;;;27.20;73.10;;;;;;4960956;29;20517;-60
2021/08/04 10:29:46;;;;;;;8.67;8.07;;;27.00;71.10;;;;;;4960768;29;20472;-61
2021/08/04 10:32:16;;;;;;;9.00;8.20;;;27.20;74.00;;;;;;4961280;29;20513;-61
2021/08/04 10:34:45;;;;;;;8.00;7.40;;;27.60;72.00;;;;;;4961214;29;20742;-61
2021/08/04 10:37:13;;;;;;;9.77;8.93;;;26.90;75.10;;;;;;4960866;29;20462;-61
2021/08/04 10:39:42;;;;;;;9.20;8.47;;;26.80;72.20;;;;;;4960288;29;20537;-61
2021/08/04 10:42:12;;;;;;;9.03;8.33;;;25.80;76.70;;;;;;4960717;29;20463;-61
2021/08/04 10:44:39;;;;;;;8.10;7.10;;;25.50;76.20;;;;;;4961109;29;20463;-61
2021/08/04 10:47:30;;;;;;;8.40;7.70;;;25.10;75.40;;;;;;4960738;29;20546;-61
2021/08/04 10:50:10;;;;;;;8.20;7.33;;;24.70;77.00;;;;;;4960816;29;20471;-61
2021/08/04 10:53:05;;;;;;;8.67;7.87;;;24.60;78.70;;;;;;4960123;28;20814;-61
2021/08/04 10:55:53;;;;;;;8.40;7.37;;;25.20;78.40;;;;;;4960328;29;20561;-61
2021/08/04 10:58:25;;;;;;;9.03;8.20;;;25.10;77.70;;;;;;4960765;29;20825;-61
2021/08/04 11:00:52;;;;;;;8.00;7.30;;;25.30;78.10;;;;;;4960831;29;20490;-61
2021/08/04 11:03:51;;;;;;;8.20;7.30;;;26.40;75.30;;;;;;4954271;28;20492;-61
2021/08/04 11:06:20;;;;;;;8.40;7.77;;;27.20;72.00;;;;;;4958956;29;20461;-61
2021/08/04 11:09:21;;;;;;;9.80;8.20;;;27.10;71.60;;;;;;4960525;29;20724;-60
2021/08/04 11:11:54;;;;;;;9.63;8.93;;;27.20;71.40;;;;;;4959745;29;20952;-60
2021/08/04 11:17:16;;;;;;;7.33;6.63;;;26.60;70.60;;;;;;5094593;27;21015;-60
2021/08/04 11:20:09;;;;;;;7.73;7.03;;;25.80;73.90;;;;;;5095018;28;20490;-60
2021/08/04 11:22:50;;;;;;;7.30;6.80;;;26.20;72.40;;;;;;5094280;28;20452;-59
2021/08/04 11:25:44;;;;;;;6.30;5.70;;;25.80;68.70;;;;;;5094877;28;20462;-59
2021/08/04 11:28:17;;;;;;;6.00;5.40;;;25.20;71.40;;;;;;5094739;28;20547;-58
2021/08/04 11:30:55;;;;;;;7.37;5.90;;;24.90;73.90;;;;;;5093547;28;20504;-59
2021/08/04 11:33:35;;;;;;;6.50;5.90;;;24.50;74.70;;;;;;5073284;28;20461;-59
2021/08/04 11:36:15;;;;;;;7.93;7.23;;;24.40;76.80;;;;;;5074303;28;20496;-58
2021/08/04 11:38:54;;;;;;;9.90;8.90;;;23.80;78.80;;;;;;5088474;28;20949;-59
2021/08/04 11:41:30;;;;;;;9.30;8.50;;;23.50;82.00;;;;;;5093236;28;20475;-59
2021/08/04 11:44:00;;;;;;;9.70;8.90;;;23.50;82.50;;;;;;5092650;28;20554;-58
2021/08/04 11:46:41;;;;;;;9.33;8.40;;;23.40;81.10;;;;;;5092836;28;20506;-59
2021/08/04 11:49:12;;;;;;;9.67;8.77;;;22.60;84.80;;;;;;5094266;28;20464;-58
2021/08/04 11:51:51;;;;;;;9.20;8.40;;;22.80;85.80;;;;;;5093151;28;20506;-59
2021/08/04 11:54:30;;;;;;;8.43;7.63;;;22.30;86.40;;;;;;5093975;28;20464;-57
2021/08/04 11:57:00;;;;;;;9.00;8.30;;;22.30;86.50;;;;;;5093656;28;20496;-58
2021/08/04 12:37:35;;;;;;;8.33;7.63;;;21.00;95.00;;;;;;5370329;23;20438;-57
2021/08/04 12:40:10;;;;;;;9.80;8.90;;;21.10;94.40;;;;;;4980911;28;20497;-56
2021/08/04 13:16:31;;;;;;;16.43;14.93;;;19.00;99.90;;;;;;5012939;23;20493;-68
2021/08/04 13:18:58;;;;;;;12.60;11.60;;;18.60;99.90;;;;;;5000051;28;20469;-70
2021/08/04 13:21:33;;;;;;;14.97;13.53;;;18.40;99.90;;;;;;4994663;28;20440;-74
2021/08/04 13:24:00;;;;;;;12.57;11.43;;;18.30;99.90;;;;;;4979872;28;20800;-70
2021/08/04 13:26:36;;;;;;;11.50;10.60;;;18.30;99.90;;;;;;4979410;28;20444;-70
2021/08/04 13:29:03;;;;;;;12.90;11.50;;;17.90;99.90;;;;;;4980053;28;20461;-70
2021/08/04 13:31:33;;;;;;;11.73;10.83;;;18.00;99.90;;;;;;4980041;28;20757;-69
2021/08/04 13:34:10;;;;;;;14.37;13.23;;;18.20;99.90;;;;;;4979961;28;20440;-69
2021/08/04 13:36:40;;;;;;;13.50;12.20;;;18.40;99.90;;;;;;4979615;28;20492;-69
2021/08/04 13:39:07;;;;;;;13.30;12.30;;;18.60;99.90;;;;;;4986700;28;20761;-69
2021/08/04 13:41:34;;;;;;;13.87;12.67;;;18.80;99.90;;;;;;4989428;28;20469;-70
2021/08/04 13:44:01;;;;;;;12.60;11.60;;;18.90;99.90;;;;;;4999309;28;20496;-70
2021/08/04 13:46:28;;;;;;;11.13;10.27;;;18.80;99.90;;;;;;4998912;28;20460;-68
2021/08/04 13:49:00;;;;;;;12.07;10.97;;;18.90;99.90;;;;;;4999668;28;20500;-67
2021/08/04 14:30:05;;;;;;;7.77;7.07;;;22.30;99.90;;;;;;5040973;23;20501;-69
2021/08/04 14:32:32;;;;;;;8.20;7.60;;;22.00;99.90;;;;;;4979337;28;20461;-69
2021/08/04 14:34:59;;;;;;;7.50;6.87;;;21.50;99.90;;;;;;4978463;28;20473;-69
2021/08/04 14:37:28;;;;;;;7.03;6.50;;;21.40;99.90;;;;;;4978738;28;20493;-69
2021/08/04 14:39:58;;;;;;;6.67;6.17;;;21.30;99.90;;;;;;4962934;28;20813;-69
2021/08/04 14:42:26;;;;;;;6.73;6.20;;;21.70;99.90;;;;;;4960055;29;20879;-69
2021/08/04 14:44:53;;;;;;;7.17;6.57;;;21.90;99.90;;;;;;4959762;29;20930;-67
2021/08/04 14:47:21;;;;;;;6.47;5.80;;;21.70;99.90;;;;;;4959450;29;20463;-67
2021/08/04 14:49:51;;;;;;;7.00;6.40;;;21.80;99.90;;;;;;4959230;28;20466;-66
2021/08/04 14:52:18;;;;;;;5.77;5.30;;;21.60;99.90;;;;;;4959364;29;20470;-66
2021/08/04 14:54:48;;;;;;;4.87;4.53;;;21.70;99.90;;;;;;4958971;29;20527;-67
2021/08/04 14:57:18;;;;;;;5.43;5.03;;;21.70;99.90;;;;;;4959040;29;20841;-66
2021/08/04 14:59:45;;;;;;;5.63;5.23;;;21.60;99.90;;;;;;4959172;29;20891;-66
2021/08/04 15:02:15;;;;;;;5.73;5.23;;;21.50;99.90;;;;;;4959131;29;20466;-66
2021/08/04 15:04:46;;;;;;;5.43;5.00;;;21.40;99.90;;;;;;4954144;28;20508;-66
2021/08/04 15:07:13;;;;;;;6.90;5.70;;;21.50;99.90;;;;;;4977460;28;20457;-66
2021/08/04 15:09:41;;;;;;;6.10;5.60;;;21.60;99.90;;;;;;4977410;28;20780;-66
2021/08/04 15:12:11;;;;;;;4.93;4.60;;;22.10;99.90;;;;;;4978559;28;20812;-66
2021/08/04 15:14:38;;;;;;;6.40;5.77;;;22.40;99.90;;;;;;4977722;28;20519;-66
2021/08/04 15:17:08;;;;;;;6.40;5.83;;;22.90;99.90;;;;;;4978025;28;20494;-66